createdAt,value
2023-01-21T01:04:29.539Z,32.17
2023-01-21T01:07:02.774Z,28.55
2023-01-21T01:09:34.336Z,29.35
2023-01-21T01:12:05.601Z,31.50
2023-01-21T01:14:36.514Z,31.00
2023-01-21T01:17:08.726Z,34.42
2023-01-21T01:19:39.606Z,31.23
2023-01-21T01:22:10.376Z,32.45
2023-01-21T01:24:41.562Z,29.98
2023-01-21T01:27:12.856Z,33.00
2023-01-21T01:29:43.510Z,32.45
2023-01-21T01:32:14.379Z,36.60
2023-01-21T01:34:46.562Z,32.78
2023-01-21T01:37:18.287Z,32.78
2023-01-21T01:39:50.104Z,30.33
2023-01-21T01:42:20.922Z,30.02
2023-01-21T01:45:01.190Z,31.48
2023-01-21T01:47:45.082Z,32.38
2023-01-21T01:50:20.053Z,30.75
2023-01-21T01:52:51.593Z,32.22
2023-01-21T01:55:22.921Z,34.38
2023-01-21T01:58:16.330Z,26.85
2023-01-21T02:00:47.990Z,29.38
2023-01-21T02:03:38.003Z,27.75
2023-01-21T02:06:09.127Z,30.30
2023-01-21T02:08:41.256Z,30.90
2023-01-21T02:11:20.715Z,33.53
2023-01-21T02:13:57.543Z,29.85
2023-01-21T02:16:40.585Z,32.55
2023-01-21T02:19:29.336Z,36.05
2023-01-21T02:22:12.562Z,29.48
2023-01-21T02:25:08.498Z,34.40
2023-01-21T02:27:46.021Z,32.63
2023-01-21T02:30:36.896Z,33.97
2023-01-21T02:33:27.673Z,29.73
2023-01-21T02:36:12.819Z,30.73
2023-01-21T02:42:44.462Z,31.33
2023-01-21T02:45:57.816Z,31.63
2023-01-21T02:48:38.535Z,31.63
2023-01-21T02:51:09.473Z,29.88
2023-01-21T02:53:40.453Z,36.30
2023-01-21T02:56:19.552Z,32.22
2023-01-21T02:58:54.889Z,32.35
2023-01-21T03:02:05.621Z,26.67
2023-01-21T03:07:35.532Z,32.85
2023-01-21T03:10:21.774Z,32.58
2023-01-21T03:12:53.668Z,27.45
2023-01-21T03:16:14.223Z,28.83
2023-01-21T03:19:08.472Z,28.08
2023-01-21T03:21:39.822Z,32.25
2023-01-21T03:24:11.337Z,29.98
2023-01-21T03:26:51.723Z,27.85
2023-01-21T03:29:27.351Z,30.08
2023-01-21T03:32:05.234Z,29.30
2023-01-21T03:34:39.730Z,29.05
2023-01-21T03:37:25.662Z,31.08
2023-01-21T03:40:27.011Z,32.25
2023-01-21T03:42:57.963Z,28.67
2023-01-21T03:45:43.488Z,39.45
2023-01-21T03:48:46.074Z,28.40
2023-01-21T03:51:27.988Z,26.23
2023-01-21T03:54:00.459Z,31.52
2023-01-21T03:56:56.646Z,30.08
2023-01-21T03:59:31.799Z,31.75
2023-01-21T04:04:46.702Z,25.77
2023-01-21T04:07:20.519Z,27.93
2023-01-21T04:09:54.074Z,34.55
2023-01-21T04:12:25.122Z,31.25
2023-01-21T04:14:57.670Z,30.42
2023-01-21T04:17:29.613Z,31.15
2023-01-21T04:20:00.441Z,30.88
2023-01-21T04:22:31.409Z,30.85
2023-01-21T04:25:02.414Z,31.02
2023-01-21T04:27:33.459Z,31.27
2023-01-21T04:30:04.501Z,32.17
2023-01-21T04:32:35.315Z,27.63
2023-01-21T04:35:07.817Z,31.55
2023-01-21T04:37:38.928Z,29.40
2023-01-21T04:40:10.635Z,29.77
2023-01-21T04:42:42.321Z,30.67
2023-01-21T04:45:13.818Z,26.80
2023-01-21T04:47:48.830Z,27.70
2023-01-21T04:50:20.806Z,30.13
2023-01-21T04:52:53.989Z,25.77
2023-01-21T04:55:26.285Z,27.48
2023-01-21T04:57:57.540Z,29.42
2023-01-21T05:00:29.787Z,28.15
2023-01-21T05:03:02.034Z,26.50
2023-01-21T05:05:58.856Z,27.73
2023-01-21T05:08:30.003Z,28.63
2023-01-21T05:11:23.470Z,28.67
2023-01-21T05:13:55.010Z,29.40
2023-01-21T05:16:47.905Z,28.63
2023-01-21T05:19:19.195Z,30.27
2023-01-21T05:21:49.978Z,28.33
2023-01-21T05:24:22.718Z,27.45
2023-01-21T05:26:54.091Z,26.90
2023-01-21T05:29:25.035Z,31.10
2023-01-21T05:31:55.748Z,27.92
2023-01-21T05:34:28.989Z,27.83
2023-01-21T05:36:59.760Z,26.33
2023-01-21T05:39:30.602Z,26.15
2023-01-21T05:42:01.578Z,27.70
2023-01-21T05:44:32.605Z,29.77
2023-01-21T05:47:03.677Z,26.67
2023-01-21T05:49:35.597Z,25.75
2023-01-21T05:52:13.279Z,26.13
2023-01-21T05:55:00.599Z,25.92
2023-01-21T05:57:34.160Z,32.95
2023-01-21T06:00:06.589Z,26.65
2023-01-21T06:02:37.616Z,25.88
2023-01-21T06:05:09.028Z,24.45
2023-01-21T06:07:41.400Z,28.48
2023-01-21T06:10:14.037Z,28.20
2023-01-21T06:13:07.763Z,28.58
2023-01-21T06:15:38.989Z,25.40
2023-01-21T06:18:11.523Z,28.30
2023-01-21T06:20:43.014Z,26.02
2023-01-21T06:23:16.007Z,29.95
2023-01-21T06:25:46.986Z,31.80
2023-01-21T06:28:18.013Z,26.05
2023-01-21T06:30:53.386Z,25.55
2023-01-21T06:33:25.079Z,28.15
2023-01-21T06:35:56.443Z,25.85
2023-01-21T06:38:27.643Z,26.42
2023-01-21T06:40:58.647Z,25.73
2023-01-21T06:43:30.003Z,25.38
2023-01-21T06:46:01.074Z,24.85
2023-01-21T06:48:33.293Z,24.80
2023-01-21T06:51:06.069Z,27.25
2023-01-21T06:53:40.126Z,25.10
2023-01-21T06:56:11.154Z,28.33
2023-01-21T06:59:01.913Z,24.00
2023-01-21T07:01:33.407Z,25.00
2023-01-21T07:04:04.999Z,29.17
2023-01-21T07:06:46.509Z,24.23
2023-01-21T07:09:17.809Z,26.38
2023-01-21T07:11:49.310Z,26.40
2023-01-21T07:14:20.159Z,28.20
2023-01-21T07:16:51.208Z,23.00
2023-01-21T07:19:24.451Z,25.63
2023-01-21T07:21:56.630Z,26.95
2023-01-21T07:24:27.801Z,26.45
2023-01-21T07:27:07.530Z,29.73
2023-01-21T07:29:38.583Z,24.73
2023-01-21T07:32:09.749Z,29.65
2023-01-21T07:34:50.223Z,29.15
2023-01-21T07:37:22.939Z,23.85
2023-01-21T07:39:57.028Z,23.48
2023-01-21T07:42:28.302Z,27.17
2023-01-21T07:45:03.982Z,30.20
2023-01-21T07:47:35.073Z,28.17
2023-01-21T07:50:10.026Z,30.20
2023-01-21T07:52:41.154Z,26.80
2023-01-21T07:55:12.960Z,27.60
2023-01-21T07:57:45.534Z,32.83
2023-01-21T08:00:18.299Z,29.52
2023-01-21T08:02:55.448Z,26.83
2023-01-21T08:05:27.669Z,30.02
2023-01-21T08:08:25.342Z,29.92
2023-01-21T08:10:57.245Z,31.80
2023-01-21T08:13:28.503Z,28.27
2023-01-21T08:16:02.615Z,30.77
2023-01-21T08:18:36.875Z,30.23
2023-01-21T08:21:08.297Z,32.50
2023-01-21T08:23:39.468Z,29.75
2023-01-21T08:26:12.719Z,30.73
2023-01-21T08:28:44.335Z,33.97
2023-01-21T08:31:16.175Z,31.25
2023-01-21T08:33:47.128Z,27.65
2023-01-21T08:36:18.406Z,33.90
2023-01-21T08:38:49.506Z,31.02
2023-01-21T08:41:20.779Z,30.00
2023-01-21T08:43:52.493Z,30.85
2023-01-21T08:46:23.780Z,30.63
2023-01-21T08:48:55.762Z,32.33
2023-01-21T08:51:27.172Z,31.48
2023-01-21T08:54:00.599Z,28.10
2023-01-21T08:56:31.602Z,32.28
2023-01-21T08:59:29.978Z,31.55
2023-01-21T09:02:00.833Z,29.40
2023-01-21T09:04:31.910Z,31.08
2023-01-21T09:07:02.860Z,31.35
2023-01-21T09:09:33.786Z,27.88
2023-01-21T09:12:10.258Z,31.73
2023-01-21T09:17:25.378Z,29.50
2023-01-21T09:19:56.369Z,30.40
2023-01-21T09:22:27.294Z,30.63
2023-01-21T09:24:58.507Z,30.23
2023-01-21T09:27:29.578Z,31.52
2023-01-21T09:30:00.581Z,28.58
2023-01-21T09:32:32.803Z,32.92
2023-01-21T09:35:03.661Z,31.20
2023-01-21T09:37:39.509Z,32.58
2023-01-21T09:40:17.527Z,30.73
2023-01-21T09:42:48.727Z,30.88
2023-01-21T09:45:22.134Z,34.78
2023-01-21T09:47:56.659Z,33.75
2023-01-21T09:50:27.916Z,30.25
2023-01-21T09:53:06.617Z,32.30
2023-01-21T09:55:48.672Z,28.85
2023-01-21T09:58:49.472Z,34.53
2023-01-21T10:01:38.180Z,31.52
2023-01-21T10:04:34.185Z,38.05
2023-01-21T10:07:23.746Z,34.80
2023-01-21T10:10:10.724Z,32.35
2023-01-21T10:12:50.449Z,30.35
2023-01-21T10:15:29.547Z,34.40
2023-01-21T10:18:12.133Z,31.98
2023-01-21T10:21:12.991Z,30.88
2023-01-21T10:23:51.381Z,33.42
2023-01-21T10:26:43.483Z,29.15
2023-01-21T10:29:20.519Z,28.45
2023-01-21T10:34:53.943Z,33.03
2023-01-21T10:37:37.942Z,31.90
2023-01-21T10:40:38.643Z,29.50
2023-01-21T10:43:15.375Z,32.33
2023-01-21T10:46:04.608Z,30.15
2023-01-21T10:49:10.728Z,27.83
2023-01-21T10:52:04.612Z,33.85
2023-01-21T10:54:50.062Z,35.65
2023-01-21T10:57:29.595Z,33.08
2023-01-21T11:03:13.625Z,31.92
2023-01-21T11:08:29.997Z,30.98
2023-01-21T11:11:02.500Z,34.75
2023-01-21T11:13:33.604Z,29.27
2023-01-21T11:16:06.152Z,32.70
2023-01-21T11:18:43.477Z,34.03
2023-01-21T11:21:26.077Z,34.35
2023-01-21T11:23:59.512Z,33.30
2023-01-21T11:26:39.081Z,32.35
2023-01-21T11:29:19.886Z,34.28
2023-01-21T11:32:03.149Z,31.00
2023-01-21T11:34:35.039Z,31.52
2023-01-21T11:37:19.461Z,34.50
2023-01-21T11:42:35.118Z,32.97
2023-01-21T11:45:37.582Z,31.70
2023-01-21T11:48:23.153Z,31.50
2023-01-21T11:51:12.301Z,31.95
2023-01-21T11:53:44.456Z,32.90
2023-01-21T11:56:18.380Z,33.05
2023-01-21T11:58:50.000Z,37.08
2023-01-21T12:01:25.047Z,40.10
2023-01-21T12:04:02.517Z,37.33
2023-01-21T12:06:36.672Z,31.48
2023-01-21T12:09:09.605Z,30.35
2023-01-21T12:11:41.217Z,32.07
2023-01-21T12:14:57.098Z,35.08
2023-01-21T12:18:00.148Z,33.60
2023-01-21T12:21:35.810Z,32.95
2023-01-21T12:24:39.218Z,37.38
2023-01-21T12:27:40.625Z,30.45
2023-01-21T12:30:39.896Z,30.40
2023-01-21T12:33:36.590Z,38.97
2023-01-21T12:36:44.260Z,37.35
2023-01-21T12:40:54.985Z,35.80
2023-01-21T12:44:22.278Z,33.30
2023-01-21T12:46:58.519Z,37.78
2023-01-21T12:49:59.347Z,36.83
2023-01-21T12:52:40.922Z,39.15
2023-01-21T12:55:46.422Z,35.17
2023-01-21T12:58:20.866Z,37.50
2023-01-21T13:01:17.938Z,38.80
2023-01-21T13:04:10.912Z,37.63
2023-01-21T13:06:54.724Z,35.70
2023-01-21T13:10:05.941Z,38.33
2023-01-21T13:12:40.136Z,39.63
2023-01-21T13:15:20.574Z,37.08
2023-01-21T13:18:03.829Z,37.65
2023-01-21T13:20:39.966Z,36.58
2023-01-21T13:23:25.062Z,35.70
2023-01-21T13:26:08.884Z,37.40
2023-01-21T13:29:07.391Z,42.05
2023-01-21T13:32:16.848Z,36.55
2023-01-21T13:36:01.786Z,39.92
2023-01-21T13:38:58.523Z,37.22
2023-01-21T13:41:41.520Z,40.15
2023-01-21T13:44:32.541Z,39.58
2023-01-21T13:47:40.742Z,38.05
2023-01-21T13:50:36.640Z,37.22
2023-01-21T13:53:31.785Z,39.15
2023-01-21T13:56:20.095Z,39.63
2023-01-21T13:59:07.614Z,39.17
2023-01-21T14:01:45.893Z,46.60
2023-01-21T14:04:23.896Z,39.95
2023-01-21T14:06:54.962Z,37.00
2023-01-21T14:09:34.916Z,39.05
2023-01-21T14:12:27.092Z,39.90
2023-01-21T14:18:25.695Z,40.35
2023-01-21T14:21:11.012Z,42.53
2023-01-21T14:24:12.328Z,42.47
2023-01-21T14:26:53.210Z,39.42
2023-01-21T14:29:48.104Z,43.72
2023-01-21T14:32:46.722Z,38.33
2023-01-21T14:35:39.094Z,38.85
2023-01-21T14:38:20.033Z,41.35
2023-01-21T14:40:53.784Z,39.97
2023-01-21T14:46:03.144Z,42.08
2023-01-21T14:48:37.474Z,40.45
2023-01-21T14:51:09.284Z,41.17
2023-01-21T14:53:54.817Z,39.05
2023-01-21T14:56:28.638Z,41.63
2023-01-21T14:59:47.726Z,44.58
2023-01-21T15:02:25.720Z,40.78
2023-01-21T15:05:06.987Z,41.63
2023-01-21T15:07:42.764Z,38.45
2023-01-21T15:10:43.936Z,42.20
2023-01-21T15:13:25.823Z,39.30
2023-01-21T15:16:29.266Z,39.35
2023-01-21T15:19:16.023Z,39.10
2023-01-21T15:22:05.084Z,42.45
2023-01-21T15:24:43.310Z,41.72
2023-01-21T15:27:24.252Z,43.83
2023-01-21T15:29:59.343Z,45.03
2023-01-21T15:32:37.791Z,40.58
2023-01-21T15:35:48.501Z,43.50
2023-01-21T15:38:22.253Z,42.15
2023-01-21T15:41:28.755Z,40.45
2023-01-21T15:44:30.021Z,45.50
2023-01-21T15:47:12.711Z,42.85
2023-01-21T15:50:34.264Z,46.38
2023-01-21T15:53:19.937Z,42.38
2023-01-21T15:55:56.663Z,45.10
2023-01-21T15:58:43.634Z,40.13
2023-01-21T16:01:38.778Z,46.08
2023-01-21T16:04:28.040Z,48.50
2023-01-21T16:07:26.117Z,51.95
2023-01-21T16:10:11.968Z,48.85
2023-01-21T16:13:08.712Z,55.70
2023-01-21T16:15:53.902Z,52.80
2023-01-21T16:19:05.997Z,48.33
2023-01-21T16:21:41.659Z,52.05
2023-01-21T16:24:32.127Z,50.25
2023-01-21T16:27:33.724Z,50.60
2023-01-21T16:30:14.905Z,51.53
2023-01-21T16:32:47.526Z,55.83
2023-01-21T16:35:19.354Z,54.47
2023-01-21T16:37:57.759Z,52.60
2023-01-21T16:40:33.321Z,49.70
2023-01-21T16:43:14.705Z,55.80
2023-01-21T16:46:04.287Z,52.58
2023-01-21T16:48:38.123Z,54.40
2023-01-21T16:51:16.954Z,51.47
2023-01-21T16:53:48.376Z,55.65
2023-01-21T16:56:32.230Z,54.83
2023-01-21T16:59:35.878Z,53.92
2023-01-21T17:02:13.694Z,52.13
2023-01-21T17:04:44.991Z,51.10
2023-01-21T17:07:21.788Z,58.75
2023-01-21T17:10:14.430Z,52.25
2023-01-21T17:13:01.323Z,53.10
2023-01-21T17:15:46.719Z,52.55
2023-01-21T17:18:26.221Z,54.75
2023-01-21T17:21:20.222Z,55.50
2023-01-21T17:24:12.893Z,57.80
2023-01-21T17:26:52.396Z,51.65
2023-01-21T17:29:30.731Z,51.85
2023-01-21T17:32:24.962Z,52.05
2023-01-21T17:35:26.044Z,51.58
2023-01-21T17:38:02.941Z,52.90
2023-01-21T17:41:06.373Z,49.60
2023-01-21T17:43:41.259Z,53.05
2023-01-21T17:46:16.605Z,50.13
2023-01-21T17:51:33.387Z,54.40
2023-01-21T17:54:07.460Z,51.83
2023-01-21T17:57:03.144Z,54.33
2023-01-21T17:59:53.811Z,53.75
2023-01-21T18:02:26.043Z,46.08
2023-01-21T18:04:56.825Z,51.28
2023-01-21T18:07:34.632Z,50.03
2023-01-21T18:10:05.884Z,53.22
2023-01-21T18:12:36.864Z,52.88
2023-01-21T18:15:17.237Z,56.05
2023-01-21T18:17:57.728Z,57.20
2023-01-21T18:20:30.979Z,55.20
2023-01-21T18:23:04.936Z,49.13
2023-01-21T18:28:08.168Z,51.08
2023-01-21T18:30:39.038Z,51.13
2023-01-21T18:33:13.403Z,48.65
2023-01-21T18:35:49.418Z,47.80
2023-01-21T18:38:28.530Z,51.20
2023-01-21T18:40:59.840Z,53.58
2023-01-21T18:43:30.755Z,52.17
2023-01-21T18:46:01.865Z,53.28
2023-01-21T18:48:34.902Z,51.85
2023-01-21T18:51:06.252Z,52.20
2023-01-21T18:53:37.044Z,51.25
2023-01-21T18:56:11.729Z,50.83
2023-01-21T18:58:42.637Z,50.63
2023-01-21T19:01:23.501Z,55.97
2023-01-21T19:03:57.783Z,58.28
2023-01-21T19:06:28.659Z,49.67
2023-01-21T19:09:00.112Z,52.78
2023-01-21T19:11:31.064Z,57.20
2023-01-21T19:16:47.658Z,57.35
2023-01-21T19:19:21.673Z,51.92
2023-01-21T19:24:24.415Z,54.63
2023-01-21T19:26:55.197Z,55.08
2023-01-21T19:29:28.351Z,50.38
2023-01-21T19:31:59.061Z,55.15
2023-01-21T19:34:29.871Z,51.30
2023-01-21T19:37:04.610Z,50.75
2023-01-21T19:39:54.892Z,58.55
2023-01-21T19:42:25.494Z,54.20
2023-01-21T19:44:56.431Z,57.72
2023-01-21T19:47:31.776Z,55.35
2023-01-21T19:50:02.680Z,49.35
2023-01-21T19:52:35.102Z,53.00
2023-01-21T19:55:07.111Z,53.90
2023-01-21T19:57:39.795Z,52.13
2023-01-21T20:00:32.904Z,58.20
2023-01-21T20:03:03.720Z,54.50
2023-01-21T20:05:35.301Z,57.88
2023-01-21T20:08:06.404Z,77.18
2023-01-21T20:10:37.250Z,60.45
2023-01-21T20:13:49.053Z,63.78
2023-01-21T20:16:24.982Z,67.22
2023-01-21T20:19:01.176Z,79.78
2023-01-21T20:21:31.858Z,84.95
2023-01-21T20:24:02.679Z,83.85
2023-01-21T20:26:33.598Z,75.45
2023-01-21T20:29:05.208Z,81.43
2023-01-21T20:31:37.039Z,81.18
2023-01-21T20:34:28.944Z,73.65
2023-01-21T20:39:45.336Z,82.75
2023-01-21T20:42:16.534Z,72.10
2023-01-21T20:44:47.381Z,73.22
2023-01-21T20:47:37.826Z,76.85
2023-01-21T20:50:21.217Z,74.70
2023-01-21T20:52:53.105Z,71.28
2023-01-21T20:55:25.646Z,75.53
2023-01-21T20:57:58.366Z,67.57
2023-01-21T21:00:33.413Z,76.85
2023-01-21T21:03:04.595Z,71.13
2023-01-21T21:05:35.768Z,68.60
2023-01-21T21:08:06.863Z,79.15
2023-01-21T21:10:38.535Z,70.00
2023-01-21T21:13:09.664Z,75.60
2023-01-21T21:15:40.887Z,68.22
2023-01-21T21:18:14.964Z,64.45
2023-01-21T21:20:45.855Z,68.50
2023-01-21T21:23:18.048Z,70.35
2023-01-21T21:25:49.996Z,77.05
2023-01-21T21:28:22.752Z,65.70
2023-01-21T21:31:14.623Z,71.97
2023-01-21T21:33:46.424Z,76.53
2023-01-21T21:36:19.069Z,69.07
2023-01-21T21:38:50.838Z,66.30
2023-01-21T21:44:33.167Z,62.10
2023-01-21T21:47:21.805Z,70.90
2023-01-21T21:49:52.436Z,66.65
2023-01-21T21:52:24.247Z,64.45
2023-01-21T21:54:56.269Z,70.07
2023-01-21T21:57:27.885Z,66.25
2023-01-21T21:59:58.721Z,63.97
2023-01-21T22:02:31.097Z,68.93
2023-01-21T22:05:03.314Z,68.05
2023-01-21T22:07:34.429Z,65.05
2023-01-21T22:12:54.050Z,69.68
2023-01-21T22:15:25.017Z,63.72
2023-01-21T22:17:55.873Z,66.75
2023-01-21T22:20:26.592Z,74.53
2023-01-21T22:22:57.160Z,68.75
2023-01-21T22:25:28.879Z,65.72
2023-01-21T22:28:00.477Z,71.43
2023-01-21T22:30:31.451Z,69.80
2023-01-21T22:33:02.449Z,69.75
2023-01-21T22:35:33.292Z,72.72
2023-01-21T22:38:23.939Z,69.38
2023-01-21T22:40:55.626Z,67.40
2023-01-21T22:43:46.931Z,67.78
2023-01-21T22:46:21.293Z,61.50
2023-01-21T22:48:52.576Z,61.80
2023-01-21T22:51:24.202Z,70.30
2023-01-21T22:53:55.887Z,69.32
2023-01-21T22:56:52.656Z,70.22
2023-01-21T22:59:23.611Z,67.05
2023-01-21T23:02:15.734Z,66.75
2023-01-21T23:04:47.365Z,63.83
2023-01-21T23:07:18.029Z,71.72
2023-01-21T23:09:48.921Z,64.50
2023-01-21T23:12:22.286Z,66.30
2023-01-21T23:14:53.307Z,67.93
2023-01-21T23:17:37.011Z,65.80
2023-01-21T23:20:08.873Z,65.03
2023-01-21T23:22:39.978Z,62.83
2023-01-21T23:25:11.790Z,70.10
2023-01-21T23:27:42.633Z,67.97
2023-01-21T23:30:15.170Z,69.25
2023-01-21T23:32:46.320Z,74.03
2023-01-21T23:35:17.859Z,67.97
2023-01-21T23:37:48.781Z,69.20
2023-01-21T23:40:21.284Z,62.83
2023-01-21T23:42:52.811Z,77.18
2023-01-21T23:45:24.492Z,73.55
2023-01-21T23:47:56.031Z,70.20
2023-01-21T23:50:28.309Z,88.05
2023-01-21T23:52:59.229Z,82.78
2023-01-21T23:55:29.959Z,83.75
2023-01-21T23:58:00.938Z,83.55
